Terminal Aerodrome Forecast
Issued by NWS Missoula, MT

Home | Current Version | Previous Version | Text Only | Print | Product List | Glossary On
Versions: 1 2 3 4 5 6 7 8 9 10 11 12 13 14
235
FTUS45 KMSO 062324
TAFBTM
TAF
KBTM 062324Z 0700/0724 29020G30KT P6SM BKN080
     FM070200 27008KT P6SM BKN100=

USA.gov is the U.S. government's official web portal to all federal, state and local government web resources and services.